sensor_id;sensor_type;location;lat;lon;timestamp;temperature;humidity
29403;DHT22;16382;59.942;30.472;2023-04-01T00:01:55;1.10;99.90
29403;DHT22;16382;59.942;30.472;2023-04-01T00:04:22;1.10;99.90
29403;DHT22;16382;59.942;30.472;2023-04-01T00:06:50;1.10;99.90
29403;DHT22;16382;59.942;30.472;2023-04-01T00:09:18;1.10;99.90
29403;DHT22;16382;59.942;30.472;2023-04-01T00:11:46;1.10;99.90
29403;DHT22;16382;59.942;30.472;2023-04-01T00:14:13;1.10;99.90
29403;DHT22;16382;59.942;30.472;2023-04-01T00:16:42;1.10;99.90
29403;DHT22;16382;59.942;30.472;2023-04-01T00:19:09;1.10;99.90
29403;DHT22;16382;59.942;30.472;2023-04-01T00:21:37;1.10;99.90
29403;DHT22;16382;59.942;30.472;2023-04-01T00:24:04;1.10;99.90
29403;DHT22;16382;59.942;30.472;2023-04-01T00:26:32;1.00;99.90
29403;DHT22;16382;59.942;30.472;2023-04-01T00:29:00;1.10;99.90
29403;DHT22;16382;59.942;30.472;2023-04-01T00:31:27;1.10;99.90
29403;DHT22;16382;59.942;30.472;2023-04-01T00:33:57;1.10;99.90
29403;DHT22;16382;59.942;30.472;2023-04-01T00:36:24;1.10;99.90
29403;DHT22;16382;59.942;30.472;2023-04-01T00:38:52;1.10;99.90
29403;DHT22;16382;59.942;30.472;2023-04-01T00:41:20;1.10;99.90
29403;DHT22;16382;59.942;30.472;2023-04-01T00:43:50;1.10;99.90
29403;DHT22;16382;59.942;30.472;2023-04-01T00:46:19;1.10;99.90
29403;DHT22;16382;59.942;30.472;2023-04-01T00:48:48;1.10;99.90
29403;DHT22;16382;59.942;30.472;2023-04-01T00:51:23;1.00;99.90
29403;DHT22;16382;59.942;30.472;2023-04-01T00:53:54;1.00;99.90
29403;DHT22;16382;59.942;30.472;2023-04-01T00:56:24;1.10;99.90
29403;DHT22;16382;59.942;30.472;2023-04-01T00:58:58;1.10;99.90
29403;DHT22;16382;59.942;30.472;2023-04-01T01:01:29;1.00;99.90
29403;DHT22;16382;59.942;30.472;2023-04-01T01:03:57;1.00;99.90
29403;DHT22;16382;59.942;30.472;2023-04-01T01:06:39;1.00;99.90
29403;DHT22;16382;59.942;30.472;2023-04-01T01:09:30;1.00;99.90
29403;DHT22;16382;59.942;30.472;2023-04-01T01:12:05;1.00;99.90
29403;DHT22;16382;59.942;30.472;2023-04-01T01:14:44;1.00;99.90
29403;DHT22;16382;59.942;30.472;2023-04-01T01:17:23;1.10;99.90
29403;DHT22;16382;59.942;30.472;2023-04-01T01:20:15;1.00;99.90
29403;DHT22;16382;59.942;30.472;2023-04-01T01:23:13;1.00;99.90
29403;DHT22;16382;59.942;30.472;2023-04-01T01:26:27;1.00;99.90
29403;DHT22;16382;59.942;30.472;2023-04-01T01:29:22;1.00;99.90
29403;DHT22;16382;59.942;30.472;2023-04-01T01:32:17;0.90;99.90
29403;DHT22;16382;59.942;30.472;2023-04-01T01:34:55;0.90;99.90
29403;DHT22;16382;59.942;30.472;2023-04-01T01:37:33;0.90;99.90
29403;DHT22;16382;59.942;30.472;2023-04-01T01:40:04;1.00;99.90
29403;DHT22;16382;59.942;30.472;2023-04-01T01:42:38;1.00;99.90
29403;DHT22;16382;59.942;30.472;2023-04-01T01:45:09;0.90;99.90
29403;DHT22;16382;59.942;30.472;2023-04-01T01:47:37;0.90;99.90
29403;DHT22;16382;59.942;30.472;2023-04-01T01:50:08;0.90;99.90
29403;DHT22;16382;59.942;30.472;2023-04-01T01:52:36;0.90;99.90
29403;DHT22;16382;59.942;30.472;2023-04-01T01:55:23;1.00;99.90
29403;DHT22;16382;59.942;30.472;2023-04-01T01:57:56;0.90;99.90
29403;DHT22;16382;59.942;30.472;2023-04-01T02:00:26;0.90;99.90
29403;DHT22;16382;59.942;30.472;2023-04-01T02:02:55;0.90;99.90
29403;DHT22;16382;59.942;30.472;2023-04-01T02:05:27;0.90;99.90
29403;DHT22;16382;59.942;30.472;2023-04-01T02:08:08;0.90;99.90
29403;DHT22;16382;59.942;30.472;2023-04-01T02:10:40;0.90;99.90
29403;DHT22;16382;59.942;30.472;2023-04-01T02:13:14;0.90;99.90
29403;DHT22;16382;59.942;30.472;2023-04-01T02:15:47;0.90;99.90
29403;DHT22;16382;59.942;30.472;2023-04-01T02:18:17;0.90;99.90
29403;DHT22;16382;59.942;30.472;2023-04-01T02:20:48;0.90;99.90
29403;DHT22;16382;59.942;30.472;2023-04-01T02:23:16;0.90;99.90
29403;DHT22;16382;59.942;30.472;2023-04-01T02:25:45;0.90;99.90
29403;DHT22;16382;59.942;30.472;2023-04-01T02:28:14;0.90;99.90
29403;DHT22;16382;59.942;30.472;2023-04-01T02:30:47;0.90;99.90
29403;DHT22;16382;59.942;30.472;2023-04-01T02:33:17;0.90;99.90
29403;DHT22;16382;59.942;30.472;2023-04-01T02:35:47;0.80;99.90
29403;DHT22;16382;59.942;30.472;2023-04-01T02:38:15;0.90;99.90
29403;DHT22;16382;59.942;30.472;2023-04-01T02:40:44;0.90;99.90
29403;DHT22;16382;59.942;30.472;2023-04-01T02:43:14;0.90;99.90
29403;DHT22;16382;59.942;30.472;2023-04-01T02:45:42;0.90;99.90
29403;DHT22;16382;59.942;30.472;2023-04-01T02:48:09;0.80;99.90
29403;DHT22;16382;59.942;30.472;2023-04-01T02:50:38;0.90;99.90
29403;DHT22;16382;59.942;30.472;2023-04-01T02:53:07;0.80;99.90
29403;DHT22;16382;59.942;30.472;2023-04-01T02:55:35;0.90;99.90
29403;DHT22;16382;59.942;30.472;2023-04-01T02:58:05;0.90;99.90
29403;DHT22;16382;59.942;30.472;2023-04-01T03:00:33;0.90;99.90
29403;DHT22;16382;59.942;30.472;2023-04-01T03:03:00;0.80;99.90
29403;DHT22;16382;59.942;30.472;2023-04-01T03:05:28;0.90;99.90
29403;DHT22;16382;59.942;30.472;2023-04-01T03:07:56;0.90;99.90
29403;DHT22;16382;59.942;30.472;2023-04-01T03:10:25;0.80;99.90
29403;DHT22;16382;59.942;30.472;2023-04-01T03:12:52;0.90;99.90
29403;DHT22;16382;59.942;30.472;2023-04-01T03:15:20;0.90;99.90
29403;DHT22;16382;59.942;30.472;2023-04-01T03:17:47;0.90;99.90
29403;DHT22;16382;59.942;30.472;2023-04-01T03:20:15;0.90;99.90
29403;DHT22;16382;59.942;30.472;2023-04-01T03:22:43;0.90;99.90
29403;DHT22;16382;59.942;30.472;2023-04-01T03:25:11;0.90;99.90
29403;DHT22;16382;59.942;30.472;2023-04-01T03:27:40;0.90;99.90
29403;DHT22;16382;59.942;30.472;2023-04-01T03:30:09;0.90;99.90
29403;DHT22;16382;59.942;30.472;2023-04-01T03:32:46;0.90;99.90
29403;DHT22;16382;59.942;30.472;2023-04-01T03:35:13;0.90;99.90
29403;DHT22;16382;59.942;30.472;2023-04-01T03:37:41;0.90;99.90
29403;DHT22;16382;59.942;30.472;2023-04-01T03:40:10;0.90;99.90
29403;DHT22;16382;59.942;30.472;2023-04-01T03:42:39;0.90;99.90
29403;DHT22;16382;59.942;30.472;2023-04-01T03:45:08;0.90;99.90
29403;DHT22;16382;59.942;30.472;2023-04-01T03:47:41;0.90;99.90
29403;DHT22;16382;59.942;30.472;2023-04-01T03:50:09;0.90;99.90
29403;DHT22;16382;59.942;30.472;2023-04-01T03:52:37;0.90;99.90
29403;DHT22;16382;59.942;30.472;2023-04-01T03:55:05;0.90;99.90
29403;DHT22;16382;59.942;30.472;2023-04-01T03:57:33;0.90;99.90
29403;DHT22;16382;59.942;30.472;2023-04-01T04:00:13;0.90;99.90
29403;DHT22;16382;59.942;30.472;2023-04-01T04:02:44;0.90;99.90
29403;DHT22;16382;59.942;30.472;2023-04-01T04:05:17;0.90;99.90
29403;DHT22;16382;59.942;30.472;2023-04-01T04:07:44;1.00;99.90
29403;DHT22;16382;59.942;30.472;2023-04-01T04:10:12;1.00;99.90
29403;DHT22;16382;59.942;30.472;2023-04-01T04:12:39;1.00;99.90
29403;DHT22;16382;59.942;30.472;2023-04-01T04:15:08;1.10;99.90
29403;DHT22;16382;59.942;30.472;2023-04-01T04:17:38;1.10;99.90
29403;DHT22;16382;59.942;30.472;2023-04-01T04:20:06;1.10;99.90
29403;DHT22;16382;59.942;30.472;2023-04-01T04:22:37;1.10;99.90
29403;DHT22;16382;59.942;30.472;2023-04-01T04:25:07;1.10;99.90
29403;DHT22;16382;59.942;30.472;2023-04-01T04:27:36;1.10;99.90
29403;DHT22;16382;59.942;30.472;2023-04-01T04:30:09;1.10;99.90
29403;DHT22;16382;59.942;30.472;2023-04-01T04:32:38;1.10;99.90
29403;DHT22;16382;59.942;30.472;2023-04-01T04:35:08;1.10;99.90
29403;DHT22;16382;59.942;30.472;2023-04-01T04:37:35;1.20;99.90
29403;DHT22;16382;59.942;30.472;2023-04-01T04:40:03;1.20;99.90
29403;DHT22;16382;59.942;30.472;2023-04-01T04:42:32;1.20;99.90
29403;DHT22;16382;59.942;30.472;2023-04-01T04:45:06;1.30;99.90
29403;DHT22;16382;59.942;30.472;2023-04-01T04:47:35;1.30;99.90
29403;DHT22;16382;59.942;30.472;2023-04-01T04:50:04;1.30;99.90
29403;DHT22;16382;59.942;30.472;2023-04-01T04:52:33;1.40;99.90
29403;DHT22;16382;59.942;30.472;2023-04-01T04:55:01;1.40;99.90
29403;DHT22;16382;59.942;30.472;2023-04-01T04:57:28;1.50;99.90
29403;DHT22;16382;59.942;30.472;2023-04-01T04:59:56;1.50;99.90
29403;DHT22;16382;59.942;30.472;2023-04-01T05:02:43;1.50;99.90
29403;DHT22;16382;59.942;30.472;2023-04-01T05:05:12;1.60;99.90
29403;DHT22;16382;59.942;30.472;2023-04-01T05:07:39;1.70;99.90
29403;DHT22;16382;59.942;30.472;2023-04-01T05:10:08;1.70;99.90
29403;DHT22;16382;59.942;30.472;2023-04-01T05:12:36;1.70;99.90
29403;DHT22;16382;59.942;30.472;2023-04-01T05:15:07;1.70;99.90
29403;DHT22;16382;59.942;30.472;2023-04-01T05:17:35;1.70;99.90
29403;DHT22;16382;59.942;30.472;2023-04-01T05:20:04;1.70;99.90
29403;DHT22;16382;59.942;30.472;2023-04-01T05:22:34;1.70;99.90
29403;DHT22;16382;59.942;30.472;2023-04-01T05:25:02;1.70;99.90
29403;DHT22;16382;59.942;30.472;2023-04-01T05:27:30;1.70;99.90
29403;DHT22;16382;59.942;30.472;2023-04-01T05:29:58;1.70;99.90
29403;DHT22;16382;59.942;30.472;2023-04-01T05:32:41;1.70;99.90
29403;DHT22;16382;59.942;30.472;2023-04-01T05:35:09;1.70;99.90
29403;DHT22;16382;59.942;30.472;2023-04-01T05:37:38;1.70;99.90
29403;DHT22;16382;59.942;30.472;2023-04-01T05:40:08;1.70;99.90
29403;DHT22;16382;59.942;30.472;2023-04-01T05:42:36;1.80;99.90
29403;DHT22;16382;59.942;30.472;2023-04-01T05:45:04;1.80;99.90
29403;DHT22;16382;59.942;30.472;2023-04-01T05:47:51;2.00;99.90
29403;DHT22;16382;59.942;30.472;2023-04-01T05:50:19;2.10;99.90
29403;DHT22;16382;59.942;30.472;2023-04-01T05:52:48;2.10;99.90
29403;DHT22;16382;59.942;30.472;2023-04-01T05:55:16;2.20;99.90
29403;DHT22;16382;59.942;30.472;2023-04-01T05:57:44;2.20;99.90
29403;DHT22;16382;59.942;30.472;2023-04-01T06:00:15;2.30;99.90
29403;DHT22;16382;59.942;30.472;2023-04-01T06:02:45;2.20;99.90
29403;DHT22;16382;59.942;30.472;2023-04-01T06:05:19;2.20;99.90
29403;DHT22;16382;59.942;30.472;2023-04-01T06:07:51;2.30;99.90
29403;DHT22;16382;59.942;30.472;2023-04-01T06:10:25;2.30;99.90
29403;DHT22;16382;59.942;30.472;2023-04-01T06:13:06;2.20;99.90
29403;DHT22;16382;59.942;30.472;2023-04-01T06:15:42;2.20;99.90
29403;DHT22;16382;59.942;30.472;2023-04-01T06:18:38;2.20;99.90
29403;DHT22;16382;59.942;30.472;2023-04-01T06:21:33;2.30;99.90
29403;DHT22;16382;59.942;30.472;2023-04-01T06:24:27;2.30;99.90
29403;DHT22;16382;59.942;30.472;2023-04-01T06:27:10;2.20;99.90
29403;DHT22;16382;59.942;30.472;2023-04-01T06:30:10;2.20;99.90
29403;DHT22;16382;59.942;30.472;2023-04-01T06:33:04;2.30;99.90
29403;DHT22;16382;59.942;30.472;2023-04-01T06:35:51;2.40;99.90
29403;DHT22;16382;59.942;30.472;2023-04-01T06:42:19;2.70;99.90
29403;DHT22;16382;59.942;30.472;2023-04-01T06:45:02;2.90;99.90
29403;DHT22;16382;59.942;30.472;2023-04-01T06:48:11;2.90;99.90
29403;DHT22;16382;59.942;30.472;2023-04-01T06:51:24;3.10;99.90
29403;DHT22;16382;59.942;30.472;2023-04-01T06:54:17;3.10;99.90
29403;DHT22;16382;59.942;30.472;2023-04-01T06:57:22;3.10;99.90
29403;DHT22;16382;59.942;30.472;2023-04-01T06:59:54;3.10;99.90
29403;DHT22;16382;59.942;30.472;2023-04-01T07:02:34;3.10;99.90
29403;DHT22;16382;59.942;30.472;2023-04-01T07:05:11;3.00;99.90
29403;DHT22;16382;59.942;30.472;2023-04-01T07:07:42;2.90;99.90
29403;DHT22;16382;59.942;30.472;2023-04-01T07:10:14;2.80;99.90
29403;DHT22;16382;59.942;30.472;2023-04-01T07:13:06;2.70;99.90
29403;DHT22;16382;59.942;30.472;2023-04-01T07:16:06;2.80;99.90
29403;DHT22;16382;59.942;30.472;2023-04-01T07:18:44;2.80;99.90
29403;DHT22;16382;59.942;30.472;2023-04-01T07:21:23;2.80;99.90
29403;DHT22;16382;59.942;30.472;2023-04-01T07:23:59;2.80;99.90
29403;DHT22;16382;59.942;30.472;2023-04-01T07:26:35;2.80;99.90
29403;DHT22;16382;59.942;30.472;2023-04-01T07:29:12;2.80;99.90
29403;DHT22;16382;59.942;30.472;2023-04-01T07:34:55;2.80;99.90
29403;DHT22;16382;59.942;30.472;2023-04-01T07:37:39;2.90;99.90
29403;DHT22;16382;59.942;30.472;2023-04-01T07:40:21;3.00;99.90
29403;DHT22;16382;59.942;30.472;2023-04-01T07:46:28;3.10;99.90
29403;DHT22;16382;59.942;30.472;2023-04-01T07:49:09;3.10;99.90
29403;DHT22;16382;59.942;30.472;2023-04-01T07:51:46;3.10;99.90
29403;DHT22;16382;59.942;30.472;2023-04-01T07:54:21;3.20;99.90
29403;DHT22;16382;59.942;30.472;2023-04-01T07:56:57;3.20;99.90
29403;DHT22;16382;59.942;30.472;2023-04-01T07:59:52;3.20;99.90
29403;DHT22;16382;59.942;30.472;2023-04-01T08:02:53;3.10;99.90
29403;DHT22;16382;59.942;30.472;2023-04-01T08:05:35;3.10;99.90
29403;DHT22;16382;59.942;30.472;2023-04-01T08:08:14;3.10;99.90
29403;DHT22;16382;59.942;30.472;2023-04-01T08:11:12;3.10;99.90
29403;DHT22;16382;59.942;30.472;2023-04-01T08:14:12;3.10;99.90
29403;DHT22;16382;59.942;30.472;2023-04-01T08:17:12;3.00;99.90
29403;DHT22;16382;59.942;30.472;2023-04-01T08:20:00;2.90;99.90
29403;DHT22;16382;59.942;30.472;2023-04-01T08:22:40;3.00;99.90
29403;DHT22;16382;59.942;30.472;2023-04-01T08:25:20;3.00;99.90
29403;DHT22;16382;59.942;30.472;2023-04-01T08:27:55;3.10;99.90
29403;DHT22;16382;59.942;30.472;2023-04-01T08:30:36;3.10;99.90
29403;DHT22;16382;59.942;30.472;2023-04-01T08:33:15;3.20;99.90
29403;DHT22;16382;59.942;30.472;2023-04-01T08:35:51;3.30;99.90
29403;DHT22;16382;59.942;30.472;2023-04-01T08:38:24;3.30;99.90
29403;DHT22;16382;59.942;30.472;2023-04-01T08:41:01;3.40;99.90
29403;DHT22;16382;59.942;30.472;2023-04-01T08:44:16;3.50;99.90
29403;DHT22;16382;59.942;30.472;2023-04-01T08:47:24;3.60;99.90
29403;DHT22;16382;59.942;30.472;2023-04-01T08:50:35;3.60;99.90
29403;DHT22;16382;59.942;30.472;2023-04-01T08:53:50;3.70;99.90
29403;DHT22;16382;59.942;30.472;2023-04-01T08:56:34;3.70;99.90
29403;DHT22;16382;59.942;30.472;2023-04-01T08:59:27;3.70;99.90
29403;DHT22;16382;59.942;30.472;2023-04-01T09:02:39;3.80;99.90
29403;DHT22;16382;59.942;30.472;2023-04-01T09:05:36;3.80;99.90
29403;DHT22;16382;59.942;30.472;2023-04-01T09:08:25;4.00;99.90
29403;DHT22;16382;59.942;30.472;2023-04-01T09:11:06;4.10;99.90
29403;DHT22;16382;59.942;30.472;2023-04-01T09:17:33;4.20;99.90
29403;DHT22;16382;59.942;30.472;2023-04-01T09:23:47;4.20;99.90
29403;DHT22;16382;59.942;30.472;2023-04-01T09:26:48;4.20;99.90
29403;DHT22;16382;59.942;30.472;2023-04-01T09:29:53;4.20;99.90
29403;DHT22;16382;59.942;30.472;2023-04-01T09:36:02;4.10;99.90
29403;DHT22;16382;59.942;30.472;2023-04-01T09:38:40;4.10;99.90
29403;DHT22;16382;59.942;30.472;2023-04-01T09:41:26;4.00;99.90
29403;DHT22;16382;59.942;30.472;2023-04-01T09:44:14;3.90;99.90
29403;DHT22;16382;59.942;30.472;2023-04-01T09:47:15;3.80;99.90
29403;DHT22;16382;59.942;30.472;2023-04-01T09:50:24;3.90;99.90
29403;DHT22;16382;59.942;30.472;2023-04-01T09:53:19;4.00;99.90
29403;DHT22;16382;59.942;30.472;2023-04-01T09:56:33;4.00;99.90
29403;DHT22;16382;59.942;30.472;2023-04-01T09:59:24;4.20;99.90
29403;DHT22;16382;59.942;30.472;2023-04-01T10:06:12;4.30;99.90
29403;DHT22;16382;59.942;30.472;2023-04-01T10:12:51;4.20;99.90
29403;DHT22;16382;59.942;30.472;2023-04-01T10:16:04;4.20;99.90
29403;DHT22;16382;59.942;30.472;2023-04-01T10:22:50;4.30;99.90
29403;DHT22;16382;59.942;30.472;2023-04-01T10:36:30;4.80;99.90
29403;DHT22;16382;59.942;30.472;2023-04-01T10:39:33;4.90;99.90
29403;DHT22;16382;59.942;30.472;2023-04-01T10:49:33;4.70;99.90
29403;DHT22;16382;59.942;30.472;2023-04-01T10:52:38;4.70;99.90
29403;DHT22;16382;59.942;30.472;2023-04-01T10:56:28;4.70;99.90
29403;DHT22;16382;59.942;30.472;2023-04-01T10:59:48;4.60;99.90
29403;DHT22;16382;59.942;30.472;2023-04-01T11:03:35;4.60;99.90
29403;DHT22;16382;59.942;30.472;2023-04-01T11:10:00;4.60;99.90
29403;DHT22;16382;59.942;30.472;2023-04-01T11:16:39;4.90;99.90
29403;DHT22;16382;59.942;30.472;2023-04-01T11:19:57;4.90;99.90
29403;DHT22;16382;59.942;30.472;2023-04-01T11:26:09;4.90;99.90
29403;DHT22;16382;59.942;30.472;2023-04-01T11:29:15;4.90;99.90
29403;DHT22;16382;59.942;30.472;2023-04-01T11:32:29;4.70;99.90
29403;DHT22;16382;59.942;30.472;2023-04-01T11:35:27;4.60;99.90
29403;DHT22;16382;59.942;30.472;2023-04-01T11:38:15;4.50;99.90
29403;DHT22;16382;59.942;30.472;2023-04-01T11:41:07;4.50;99.90
29403;DHT22;16382;59.942;30.472;2023-04-01T11:44:16;4.50;99.90
29403;DHT22;16382;59.942;30.472;2023-04-01T11:47:22;4.40;99.90
29403;DHT22;16382;59.942;30.472;2023-04-01T11:50:10;4.30;99.90
29403;DHT22;16382;59.942;30.472;2023-04-01T11:56:01;4.30;99.90
29403;DHT22;16382;59.942;30.472;2023-04-01T11:59:12;4.30;99.90
29403;DHT22;16382;59.942;30.472;2023-04-01T12:01:59;4.20;99.90
29403;DHT22;16382;59.942;30.472;2023-04-01T12:07:52;4.10;99.90
29403;DHT22;16382;59.942;30.472;2023-04-01T12:10:48;4.00;99.90
29403;DHT22;16382;59.942;30.472;2023-04-01T12:13:31;4.00;99.90
29403;DHT22;16382;59.942;30.472;2023-04-01T12:19:18;3.90;99.90
29403;DHT22;16382;59.942;30.472;2023-04-01T12:22:03;3.90;99.90
29403;DHT22;16382;59.942;30.472;2023-04-01T12:24:58;4.00;99.90
29403;DHT22;16382;59.942;30.472;2023-04-01T12:27:41;4.10;99.90
29403;DHT22;16382;59.942;30.472;2023-04-01T12:30:46;4.10;99.90
29403;DHT22;16382;59.942;30.472;2023-04-01T12:33:48;4.20;99.90
29403;DHT22;16382;59.942;30.472;2023-04-01T12:36:56;4.20;99.90
29403;DHT22;16382;59.942;30.472;2023-04-01T12:42:43;4.10;99.90
29403;DHT22;16382;59.942;30.472;2023-04-01T12:45:30;4.10;99.90
29403;DHT22;16382;59.942;30.472;2023-04-01T12:48:23;4.10;99.90
29403;DHT22;16382;59.942;30.472;2023-04-01T12:51:29;4.10;99.90
29403;DHT22;16382;59.942;30.472;2023-04-01T12:54:24;3.90;99.90
29403;DHT22;16382;59.942;30.472;2023-04-01T12:57:37;3.90;99.90
29403;DHT22;16382;59.942;30.472;2023-04-01T13:07:24;4.00;99.90
29403;DHT22;16382;59.942;30.472;2023-04-01T13:10:09;4.00;99.90
29403;DHT22;16382;59.942;30.472;2023-04-01T13:16:33;4.10;99.90
29403;DHT22;16382;59.942;30.472;2023-04-01T13:19:12;4.20;99.90
29403;DHT22;16382;59.942;30.472;2023-04-01T13:21:52;4.40;99.90
29403;DHT22;16382;59.942;30.472;2023-04-01T13:24:39;4.60;99.90
29403;DHT22;16382;59.942;30.472;2023-04-01T13:27:30;4.80;99.90
29403;DHT22;16382;59.942;30.472;2023-04-01T13:30:18;5.00;99.90
29403;DHT22;16382;59.942;30.472;2023-04-01T13:33:10;5.30;99.90
29403;DHT22;16382;59.942;30.472;2023-04-01T13:35:46;5.50;99.90
29403;DHT22;16382;59.942;30.472;2023-04-01T13:38:57;5.70;99.90
29403;DHT22;16382;59.942;30.472;2023-04-01T13:41:57;6.10;99.90
29403;DHT22;16382;59.942;30.472;2023-04-01T13:44:40;7.10;99.90
29403;DHT22;16382;59.942;30.472;2023-04-01T13:47:27;7.90;99.90
29403;DHT22;16382;59.942;30.472;2023-04-01T13:50:34;8.40;99.90
29403;DHT22;16382;59.942;30.472;2023-04-01T13:56:34;7.50;99.90
29403;DHT22;16382;59.942;30.472;2023-04-01T13:59:38;6.90;99.90
29403;DHT22;16382;59.942;30.472;2023-04-01T14:02:29;6.40;99.90
29403;DHT22;16382;59.942;30.472;2023-04-01T14:05:36;5.90;99.90
29403;DHT22;16382;59.942;30.472;2023-04-01T14:08:26;5.60;99.90
29403;DHT22;16382;59.942;30.472;2023-04-01T14:11:10;5.30;99.90
29403;DHT22;16382;59.942;30.472;2023-04-01T14:13:52;5.20;99.90
29403;DHT22;16382;59.942;30.472;2023-04-01T14:26:49;4.80;99.90
29403;DHT22;16382;59.942;30.472;2023-04-01T14:29:59;4.80;99.90
29403;DHT22;16382;59.942;30.472;2023-04-01T14:32:45;4.70;99.90
29403;DHT22;16382;59.942;30.472;2023-04-01T14:35:41;4.60;99.90
29403;DHT22;16382;59.942;30.472;2023-04-01T14:38:31;4.50;99.90
29403;DHT22;16382;59.942;30.472;2023-04-01T14:41:17;4.50;99.90
29403;DHT22;16382;59.942;30.472;2023-04-01T14:44:01;4.40;99.90
29403;DHT22;16382;59.942;30.472;2023-04-01T14:47:19;4.30;99.90
29403;DHT22;16382;59.942;30.472;2023-04-01T14:50:06;4.20;99.90
29403;DHT22;16382;59.942;30.472;2023-04-01T14:52:40;4.20;99.90
29403;DHT22;16382;59.942;30.472;2023-04-01T14:55:23;4.20;99.90
29403;DHT22;16382;59.942;30.472;2023-04-01T14:57:59;4.20;99.90
29403;DHT22;16382;59.942;30.472;2023-04-01T15:00:47;4.10;99.90
29403;DHT22;16382;59.942;30.472;2023-04-01T15:03:22;4.00;99.90
29403;DHT22;16382;59.942;30.472;2023-04-01T15:06:25;4.00;99.90
29403;DHT22;16382;59.942;30.472;2023-04-01T15:09:07;3.80;99.90
29403;DHT22;16382;59.942;30.472;2023-04-01T15:11:51;3.80;99.90
29403;DHT22;16382;59.942;30.472;2023-04-01T15:14:41;3.70;99.90
29403;DHT22;16382;59.942;30.472;2023-04-01T15:17:42;3.70;99.90
29403;DHT22;16382;59.942;30.472;2023-04-01T15:20:43;3.60;99.90
29403;DHT22;16382;59.942;30.472;2023-04-01T15:23:58;3.60;99.90
29403;DHT22;16382;59.942;30.472;2023-04-01T15:26:43;3.60;99.90
29403;DHT22;16382;59.942;30.472;2023-04-01T15:29:38;3.60;99.90
29403;DHT22;16382;59.942;30.472;2023-04-01T15:32:17;3.60;99.90
29403;DHT22;16382;59.942;30.472;2023-04-01T15:34:56;3.50;99.90
29403;DHT22;16382;59.942;30.472;2023-04-01T15:37:40;3.30;99.90
29403;DHT22;16382;59.942;30.472;2023-04-01T15:40:26;3.20;99.90
29403;DHT22;16382;59.942;30.472;2023-04-01T15:43:15;3.10;99.90
29403;DHT22;16382;59.942;30.472;2023-04-01T15:45:58;3.00;99.90
29403;DHT22;16382;59.942;30.472;2023-04-01T15:48:44;3.00;99.90
29403;DHT22;16382;59.942;30.472;2023-04-01T15:51:47;3.00;99.90
29403;DHT22;16382;59.942;30.472;2023-04-01T16:01:32;3.00;99.90
29403;DHT22;16382;59.942;30.472;2023-04-01T16:04:22;2.90;99.90
29403;DHT22;16382;59.942;30.472;2023-04-01T16:07:15;2.90;99.90
29403;DHT22;16382;59.942;30.472;2023-04-01T16:10:05;2.80;99.90
29403;DHT22;16382;59.942;30.472;2023-04-01T16:12:54;2.80;99.90
29403;DHT22;16382;59.942;30.472;2023-04-01T16:15:36;2.70;99.90
29403;DHT22;16382;59.942;30.472;2023-04-01T16:18:23;2.70;99.90
29403;DHT22;16382;59.942;30.472;2023-04-01T16:21:02;2.70;99.90
29403;DHT22;16382;59.942;30.472;2023-04-01T16:23:39;2.60;99.90
29403;DHT22;16382;59.942;30.472;2023-04-01T16:26:20;2.70;99.90
29403;DHT22;16382;59.942;30.472;2023-04-01T16:28:54;2.60;99.90
29403;DHT22;16382;59.942;30.472;2023-04-01T16:31:32;2.50;99.90
29403;DHT22;16382;59.942;30.472;2023-04-01T16:34:09;2.50;99.90
29403;DHT22;16382;59.942;30.472;2023-04-01T16:36:49;2.50;99.90
29403;DHT22;16382;59.942;30.472;2023-04-01T16:39:47;2.40;99.90
29403;DHT22;16382;59.942;30.472;2023-04-01T16:42:41;2.40;99.90
29403;DHT22;16382;59.942;30.472;2023-04-01T16:45:54;2.40;99.90
29403;DHT22;16382;59.942;30.472;2023-04-01T16:49:17;2.30;99.90
29403;DHT22;16382;59.942;30.472;2023-04-01T16:52:31;2.30;99.90
29403;DHT22;16382;59.942;30.472;2023-04-01T16:55:18;2.30;99.90
29403;DHT22;16382;59.942;30.472;2023-04-01T16:58:54;2.30;99.90
29403;DHT22;16382;59.942;30.472;2023-04-01T17:01:51;2.30;99.90
29403;DHT22;16382;59.942;30.472;2023-04-01T17:04:47;2.20;99.90
29403;DHT22;16382;59.942;30.472;2023-04-01T17:07:27;2.20;99.90
29403;DHT22;16382;59.942;30.472;2023-04-01T17:10:17;2.10;99.90
29403;DHT22;16382;59.942;30.472;2023-04-01T17:13:06;2.10;99.90
29403;DHT22;16382;59.942;30.472;2023-04-01T17:16:10;2.10;99.90
29403;DHT22;16382;59.942;30.472;2023-04-01T17:18:50;2.00;99.90
29403;DHT22;16382;59.942;30.472;2023-04-01T17:21:47;2.00;99.90
29403;DHT22;16382;59.942;30.472;2023-04-01T17:24:36;2.00;99.90
29403;DHT22;16382;59.942;30.472;2023-04-01T17:27:28;2.00;99.90
29403;DHT22;16382;59.942;30.472;2023-04-01T17:30:12;2.00;99.90
29403;DHT22;16382;59.942;30.472;2023-04-01T17:32:55;2.00;99.90
29403;DHT22;16382;59.942;30.472;2023-04-01T17:35:33;2.00;99.90
29403;DHT22;16382;59.942;30.472;2023-04-01T17:38:06;2.00;99.90
29403;DHT22;16382;59.942;30.472;2023-04-01T17:40:56;2.00;99.90
29403;DHT22;16382;59.942;30.472;2023-04-01T17:43:39;2.00;99.90
29403;DHT22;16382;59.942;30.472;2023-04-01T17:46:27;2.00;99.90
29403;DHT22;16382;59.942;30.472;2023-04-01T17:49:05;2.00;99.90
29403;DHT22;16382;59.942;30.472;2023-04-01T17:51:50;2.00;99.90
29403;DHT22;16382;59.942;30.472;2023-04-01T17:54:29;2.00;99.90
29403;DHT22;16382;59.942;30.472;2023-04-01T17:57:21;1.90;99.90
29403;DHT22;16382;59.942;30.472;2023-04-01T18:00:01;1.90;99.90
29403;DHT22;16382;59.942;30.472;2023-04-01T18:02:47;1.90;99.90
29403;DHT22;16382;59.942;30.472;2023-04-01T18:05:32;1.90;99.90
29403;DHT22;16382;59.942;30.472;2023-04-01T18:08:15;1.90;99.90
29403;DHT22;16382;59.942;30.472;2023-04-01T18:10:57;1.90;99.90
29403;DHT22;16382;59.942;30.472;2023-04-01T18:17:21;1.80;99.90
29403;DHT22;16382;59.942;30.472;2023-04-01T18:20:06;1.80;99.90
29403;DHT22;16382;59.942;30.472;2023-04-01T18:22:47;1.80;99.90
29403;DHT22;16382;59.942;30.472;2023-04-01T18:25:32;1.80;99.90
29403;DHT22;16382;59.942;30.472;2023-04-01T18:28:26;1.80;99.90
29403;DHT22;16382;59.942;30.472;2023-04-01T18:31:07;1.80;99.90
29403;DHT22;16382;59.942;30.472;2023-04-01T18:33:47;1.80;99.90
29403;DHT22;16382;59.942;30.472;2023-04-01T18:36:23;1.80;99.90
29403;DHT22;16382;59.942;30.472;2023-04-01T18:39:02;1.90;99.90
29403;DHT22;16382;59.942;30.472;2023-04-01T18:41:35;1.90;99.90
29403;DHT22;16382;59.942;30.472;2023-04-01T18:44:26;1.90;99.90
29403;DHT22;16382;59.942;30.472;2023-04-01T18:47:03;1.90;99.90
29403;DHT22;16382;59.942;30.472;2023-04-01T18:49:43;1.90;99.90
29403;DHT22;16382;59.942;30.472;2023-04-01T18:52:18;1.80;99.90
29403;DHT22;16382;59.942;30.472;2023-04-01T18:57:49;1.80;99.90
29403;DHT22;16382;59.942;30.472;2023-04-01T19:00:20;1.80;99.90